Hillsdale, Illinois
Current Conditions -  °F | °C
As of 10:15 AM on Sunday 25 Jan 2015 (Local Time) from KCWI Reporting Station
Overcast Overcast  
Wind Chill: 14°   Ceiling: 1000
Heat Index: 28°   Visibility: 1.5mi
Dew Point: 25°   Wind: 23mph
Humidity: 86%   Direction: 50°NE
Pressure: 29.81"   Gusts: 31mph
Location:  41.61°N, 90.17°W
Report Text: KCWI 251615Z AUTO 05020G27KT 1 1/2SM OVC010 M02/M04 A2981 RMK AO1
Loading
Personal Weather Stations






























Interactive Weather Map New forecast layout! Learn more

10-Day Weather Forecast

Advertisements
Track Severe Weather on mobile